Time,TemperatureF,DewpointF,PressureIn,WindDirection,WindDirectionDegrees,WindSpeedMPH,WindSpeedGustMPH,Humidity,HourlyPrecipIn,Conditions,Clouds,dailyrainin,SoftwareType,DateUTC
2014-01-10 00:22:00,46.0,-99.9,-100.00,East,94,4.0,4.0,-999,-99.99,,,-99.99,,2014-01-10 06:22:00,
2014-01-10 01:22:00,46.0,-99.9,-100.00,NNW,335,15.0,15.0,-999,-99.99,,,-99.99,,2014-01-10 07:22:00,
2014-01-10 01:42:00,47.0,-99.9,-100.00,East,97,2.0,2.0,-999,-99.99,,,-99.99,,2014-01-10 07:42:00,
2014-01-10 03:30:00,47.0,-99.9,-100.00,ESE,121,9.0,13.0,-999,-99.99,,,-99.99,,2014-01-10 09:30:00,
2014-01-10 04:23:00,47.0,-99.9,-100.00,ESE,121,9.0,13.0,-999,-99.99,,,-99.99,,2014-01-10 10:23:00,
2014-01-10 05:40:00,47.0,-99.9,-100.00,West,264,6.0,8.0,-999,-99.99,,,-99.99,,2014-01-10 11:40:00,
2014-01-10 06:22:00,47.0,-99.9,-100.00,West,264,6.0,8.0,-999,-99.99,,,-99.99,,2014-01-10 12:22:00,
2014-01-10 06:32:00,47.0,-99.9,-100.00,West,264,6.0,8.0,-999,-99.99,,,-99.99,,2014-01-10 12:32:00,
2014-01-10 07:00:00,46.0,-99.9,-100.00,WSW,240,4.0,9.0,-999,-99.99,,,-99.99,,2014-01-10 13:00:00,
2014-01-10 07:22:00,45.0,-99.9,-100.00,WSW,247,7.0,10.0,-999,-99.99,,,-99.99,,2014-01-10 13:22:00,
2014-01-10 07:42:00,46.0,-99.9,-100.00,WSW,240,4.0,9.0,-999,-99.99,,,-99.99,,2014-01-10 13:42:00,
2014-01-10 07:52:00,46.0,-99.9,-100.00,WSW,240,4.0,9.0,-999,-99.99,,,-99.99,,2014-01-10 13:52:00,
2014-01-10 09:50:00,47.0,-99.9,-100.00,ENE,75,3.0,6.0,-999,-99.99,,,-99.99,,2014-01-10 15:50:00,
2014-01-10 10:13:00,47.0,-99.9,-100.00,WNW,290,6.0,10.0,-999,-99.99,,,-99.99,,2014-01-10 16:13:00,
2014-01-10 10:23:00,47.0,-99.9,-100.00,WNW,290,6.0,10.0,-999,-99.99,,,-99.99,,2014-01-10 16:23:00,
2014-01-10 10:43:00,47.0,-99.9,-100.00,ENE,75,3.0,6.0,-999,-99.99,,,-99.99,,2014-01-10 16:43:00,
2014-01-10 14:42:00,56.0,-99.9,-100.00,North,-999,0.0,3.0,-999,-99.99,,,-99.99,,2014-01-10 20:42:00,
2014-01-10 14:52:00,56.0,-99.9,-100.00,South,181,2.0,7.0,-999,-99.99,,,-99.99,,2014-01-10 20:52:00,
2014-01-10 15:03:00,56.0,-99.9,-100.00,South,181,2.0,7.0,-999,-99.99,,,-99.99,,2014-01-10 21:03:00,
2014-01-10 20:20:00,50.0,-99.9,-100.00,North,4,1.0,2.0,-999,-99.99,,,-99.99,,2014-01-11 02:20:00,
2014-01-10 21:43:00,52.0,-99.9,-100.00,North,-999,0.0,4.0,-999,-99.99,,,-99.99,,2014-01-11 03:43:00,
2014-01-10 21:54:00,52.0,-99.9,-100.00,North,-999,0.0,4.0,-999,-99.99,,,-99.99,,2014-01-11 03:54:00,
2014-01-10 22:40:00,43.0,-99.9,-100.00,North,-999,0.0,9.0,-999,-99.99,,,-99.99,,2014-01-11 04:40:00,
2014-01-10 23:12:00,43.0,-99.9,-100.00,East,97,5.0,10.0,-999,-99.99,,,-99.99,,2014-01-11 05:12:00,
2014-01-10 23:22:00,43.0,-99.9,-100.00,North,-999,0.0,9.0,-999,-99.99,,,-99.99,,2014-01-11 05:22:00,
2014-01-10 23:33:00,43.0,-99.9,-100.00,North,-999,0.0,9.0,-999,-99.99,,,-99.99,,2014-01-11 05:33:00,